Time;durP1;ratioP1;P1;durP2;ratioP2;P2;SDS_P1;SDS_P2;PMS_P1;PMS_P2;Temp;Humidity;BMP_temperature;BMP_pressure;BME280_temperature;BME280_humidity;BME280_pressure;Samples;Min_cycle;Max_cycle;Signal;HPM_P1;HPM_P2
2022/03/11 00:01:42;;;;;;;14.73;7.50;;;;;;;-142.75;96.54;78208.41;5051458;28;20037;-66
2022/03/11 00:04:08;;;;;;;14.65;7.38;;;;;;;-142.75;98.17;78220.22;5052619;28;20078;-66
2022/03/11 00:06:33;;;;;;;10.95;6.82;;;;;;;-142.75;98.44;78216.28;5052579;28;20036;-67
2022/03/11 00:08:58;;;;;;;13.07;6.97;;;;;;;-142.75;99.31;78222.19;5052188;28;20021;-66
2022/03/11 00:11:23;;;;;;;13.17;7.77;;;;;;;-142.75;100.00;78232.03;5052526;28;20282;-66
2022/03/11 00:13:49;;;;;;;12.60;7.38;;;;;;;-142.75;99.63;78234.00;5051232;28;20033;-66
2022/03/11 00:16:14;;;;;;;14.67;7.50;;;;;;;-142.75;99.84;78241.88;5052407;28;20020;-66
2022/03/11 00:18:39;;;;;;;14.18;6.60;;;;;;;-142.75;100.00;78234.00;5052101;28;20033;-66
2022/03/11 00:21:05;;;;;;;14.07;7.37;;;;;;;-142.75;99.27;78241.88;5052158;28;20027;-66
2022/03/11 00:23:31;;;;;;;;;;;;;;;-142.75;100.00;78247.78;5052797;28;20760;-66
2022/03/11 00:25:56;;;;;;;13.83;7.23;;;;;;;-142.75;100.00;78249.75;5051031;28;19913;-67
2022/03/11 00:28:21;;;;;;;16.40;6.93;;;;;;;-142.75;100.00;78251.72;5052018;28;20094;-65
2022/03/11 00:30:47;;;;;;;12.75;7.43;;;;;;;-142.75;100.00;78249.75;5050729;28;20413;-66
2022/03/11 00:33:12;;;;;;;11.50;7.35;;;;;;;-142.75;100.00;78249.75;5052308;28;20534;-66
2022/03/11 00:35:37;;;;;;;12.25;7.40;;;;;;;-142.75;100.00;78257.63;5051925;28;20029;-66
2022/03/11 00:38:03;;;;;;;15.00;7.93;;;;;;;-142.75;100.00;78253.69;5050348;28;20034;-66
2022/03/11 00:40:28;;;;;;;15.13;7.00;;;;;;;-142.75;100.00;78255.66;5051982;28;20051;-66
2022/03/11 00:42:53;;;;;;;11.45;6.80;;;;;;;-142.75;100.00;78251.72;5050599;28;20111;-67
2022/03/11 00:45:19;;;;;;;14.47;7.37;;;;;;;-142.75;100.00;78255.66;5051994;28;20474;-66
2022/03/11 00:47:44;;;;;;;15.57;7.60;;;;;;;-142.75;100.00;78249.75;5051845;28;20271;-67
2022/03/11 00:50:10;;;;;;;13.57;7.78;;;;;;;-142.75;100.00;78255.66;5051319;28;20329;-65
2022/03/11 00:52:35;;;;;;;17.23;8.20;;;;;;;-142.75;100.00;78255.66;5051783;28;20025;-66
2022/03/11 00:55:03;;;;;;;15.02;7.43;;;;;;;-142.75;100.00;78259.59;5051683;28;20028;-66
2022/03/11 00:57:29;;;;;;;16.77;7.73;;;;;;;-142.75;100.00;78263.53;5051695;28;20044;-67
2022/03/11 00:59:54;;;;;;;12.43;7.70;;;;;;;-142.75;100.00;78269.44;5050121;28;20021;-66
2022/03/11 01:02:19;;;;;;;15.10;8.30;;;;;;;-142.75;100.00;78263.53;5050307;28;20056;-66
2022/03/11 01:04:47;;;;;;;17.95;7.50;;;;;;;-142.75;100.00;78267.47;5050181;28;20028;-66
2022/03/11 01:07:12;;;;;;;14.37;7.70;;;;;;;-142.75;100.00;78271.41;5051470;28;20486;-66
2022/03/11 01:09:37;;;;;;;13.17;6.80;;;;;;;-142.75;100.00;78267.47;5051137;28;20016;-67
2022/03/11 01:12:03;;;;;;;14.87;8.33;;;;;;;-142.75;100.00;78273.38;5051337;28;20330;-66
2022/03/11 01:14:28;;;;;;;17.77;7.85;;;;;;;-142.75;100.00;78263.53;5051314;28;20029;-66
2022/03/11 01:16:53;;;;;;;12.20;7.43;;;;;;;-142.75;100.00;78259.59;5051366;28;20121;-66
2022/03/11 01:19:19;;;;;;;18.07;7.43;;;;;;;-142.75;100.00;78265.50;5050461;28;20302;-66
2022/03/11 01:21:44;;;;;;;13.93;7.60;;;;;;;-142.75;100.00;78267.47;5051096;28;20036;-67
2022/03/11 01:24:09;;;;;;;14.93;7.47;;;;;;;-142.75;100.00;78273.38;5051237;28;20020;-66
2022/03/11 01:26:35;;;;;;;14.83;7.97;;;;;;;-142.75;100.00;78267.47;5051070;28;20024;-66
2022/03/11 01:29:00;;;;;;;15.38;7.85;;;;;;;-142.75;100.00;78271.41;5050830;28;20274;-66
2022/03/11 01:31:25;;;;;;;14.48;7.50;;;;;;;-142.75;100.00;78271.41;5050876;28;20399;-66
2022/03/11 01:33:50;;;;;;;14.40;7.97;;;;;;;-142.75;100.00;78271.41;5049742;28;20063;-66
2022/03/11 01:36:16;;;;;;;12.40;7.90;;;;;;;-142.75;100.00;78273.38;5050973;28;20090;-67
2022/03/11 01:38:43;;;;;;;15.40;8.43;;;;;;;-142.75;100.00;78277.31;5049336;28;20370;-67
2022/03/11 01:41:09;;;;;;;19.83;8.33;;;;;;;-142.75;100.00;78279.28;5050847;28;20286;-66
2022/03/11 01:43:57;;;;;;;13.43;7.38;;;;;;;-142.75;100.00;78277.31;5050918;28;20028;-66
2022/03/11 01:46:22;;;;;;;15.87;9.00;;;;;;;-142.75;100.00;78271.41;5049497;28;20036;-67
2022/03/11 01:48:48;;;;;;;14.75;9.10;;;;;;;-142.75;100.00;78275.34;5050506;28;20029;-66
2022/03/11 01:51:13;;;;;;;18.50;9.00;;;;;;;-142.75;100.00;78275.34;5050706;28;20060;-67
2022/03/11 01:53:39;;;;;;;14.38;8.65;;;;;;;-142.75;100.00;78275.34;5050780;28;20032;-66
2022/03/11 01:56:05;;;;;;;16.45;8.18;;;;;;;-142.75;100.00;78269.44;5050702;28;20036;-66
2022/03/11 01:58:32;;;;;;;16.13;8.57;;;;;;;-142.75;100.00;78271.41;5029175;28;20025;-66
2022/03/11 02:00:57;;;;;;;17.30;9.50;;;;;;;-142.75;100.00;78269.44;5029310;28;20037;-66
2022/03/11 02:03:23;;;;;;;20.20;8.63;;;;;;;-142.75;100.00;78271.41;5029447;28;20032;-66
2022/03/11 02:05:48;;;;;;;14.83;8.20;;;;;;;-142.75;100.00;78267.47;5030738;28;20284;-66
2022/03/11 02:08:14;;;;;;;19.55;9.10;;;;;;;-142.75;100.00;78267.47;5030392;28;20021;-66
2022/03/11 02:10:39;;;;;;;15.68;8.55;;;;;;;-142.75;100.00;78273.38;5029354;28;20017;-65
2022/03/11 02:13:08;;;;;;;16.27;8.43;;;;;;;-142.75;100.00;78273.38;5030634;28;20159;-66
2022/03/11 02:15:33;;;;;;;14.67;8.63;;;;;;;-142.75;100.00;78259.59;5030587;28;20310;-66
2022/03/11 02:17:59;;;;;;;17.30;9.10;;;;;;;-142.75;100.00;78253.69;5030145;28;20033;-66
2022/03/11 02:20:24;;;;;;;20.30;8.75;;;;;;;-142.75;100.00;78257.63;5030565;28;20026;-66
2022/03/11 02:22:51;;;;;;;17.90;8.73;;;;;;;-142.75;100.00;78257.63;5030653;28;20025;-66
2022/03/11 02:25:17;;;;;;;18.80;8.93;;;;;;;-142.75;100.00;78251.72;5030582;28;20446;-66
2022/03/11 02:27:42;;;;;;;16.08;8.40;;;;;;;-142.75;100.00;78249.75;5029257;28;20029;-66
2022/03/11 02:30:21;;;;;;;20.13;8.90;;;;;;;-142.75;100.00;78243.84;5030057;28;20021;-64
2022/03/11 02:32:47;;;;;;;16.93;8.80;;;;;;;-142.75;100.00;78243.84;5032826;28;20443;-66
2022/03/11 02:35:14;;;;;;;19.75;8.98;;;;;;;-142.75;100.00;78247.78;5034511;28;20108;-66
2022/03/11 02:37:39;;;;;;;17.93;9.37;;;;;;;-142.75;100.00;78249.75;5034398;28;20692;-66
2022/03/11 02:40:05;;;;;;;17.70;9.05;;;;;;;-142.75;100.00;78247.78;5034046;28;20017;-66
2022/03/11 02:42:31;;;;;;;;;;;;;;;-142.75;100.00;78249.75;5033542;28;20029;-66
2022/03/11 02:45:01;;;;;;;18.83;8.50;;;;;;;-142.75;100.00;78259.59;5032945;28;19913;-66
2022/03/11 02:47:27;;;;;;;20.03;8.60;;;;;;;-142.75;100.00;78257.63;5034269;28;20452;-66
2022/03/11 02:49:53;;;;;;;17.20;9.13;;;;;;;-142.75;100.00;78253.69;5033916;28;20387;-66
2022/03/11 02:52:18;;;;;;;16.10;8.55;;;;;;;-142.75;100.00;78247.78;5034200;28;20029;-66
2022/03/11 02:54:43;;;;;;;17.17;9.40;;;;;;;-142.75;100.00;78257.63;5032791;28;20131;-66
2022/03/11 02:57:09;;;;;;;17.70;9.47;;;;;;;-142.75;100.00;78267.47;5034074;28;20295;-66
2022/03/11 02:59:34;;;;;;;19.40;9.80;;;;;;;-142.75;100.00;78263.53;5033662;28;20886;-66
2022/03/11 03:01:59;;;;;;;17.23;8.53;;;;;;;-142.75;100.00;78261.56;5033880;28;20272;-66
2022/03/11 03:04:24;;;;;;;18.88;9.27;;;;;;;-142.75;100.00;78271.41;5034106;28;20017;-66
2022/03/11 03:06:50;;;;;;;20.13;9.40;;;;;;;-142.75;100.00;78265.50;5033921;28;20442;-66
2022/03/11 03:09:15;;;;;;;15.13;8.83;;;;;;;-142.75;100.00;78267.47;5033653;28;20268;-66
2022/03/11 03:11:40;;;;;;;19.77;10.32;;;;;;;-142.75;100.00;78267.47;5033753;28;20545;-67
2022/03/11 03:14:06;;;;;;;16.73;9.75;;;;;;;-142.75;100.00;78269.44;5033731;28;20021;-67
2022/03/11 03:16:31;;;;;;;14.73;8.95;;;;;;;-142.75;100.00;78275.34;5033776;28;20036;-67
2022/03/11 03:21:35;;;;;;;17.20;9.00;;;;;;;-142.75;100.00;78279.28;5048095;28;20103;-67
2022/03/11 03:24:00;;;;;;;18.90;9.60;;;;;;;-142.75;100.00;78277.31;5052554;28;20029;-67
2022/03/11 03:26:25;;;;;;;17.38;9.05;;;;;;;-142.75;100.00;78271.41;5053865;28;20295;-67
2022/03/11 03:28:51;;;;;;;19.03;9.53;;;;;;;-142.75;100.00;78275.34;5053387;28;20027;-67
2022/03/11 03:31:19;;;;;;;16.90;9.65;;;;;;;-142.75;100.00;78287.16;5053341;28;20267;-67
2022/03/11 03:33:44;;;;;;;19.00;9.50;;;;;;;-142.75;100.00;78285.19;5053279;28;20142;-67
2022/03/11 03:36:09;;;;;;;17.95;9.77;;;;;;;-142.75;100.00;78287.16;5053409;28;20046;-66
2022/03/11 03:38:35;;;;;;;15.63;9.23;;;;;;;-142.75;100.00;78295.06;5052949;28;20506;-67
2022/03/11 03:41:00;;;;;;;18.13;9.68;;;;;;;-142.75;100.00;78287.16;5053059;28;20024;-67
2022/03/11 03:43:26;;;;;;;18.70;10.57;;;;;;;-142.75;100.00;78287.16;5053203;28;20035;-67
2022/03/11 03:45:51;;;;;;;17.85;9.68;;;;;;;-142.75;100.00;78291.09;5053535;28;20035;-66
2022/03/11 03:48:16;;;;;;;18.60;9.90;;;;;;;-142.75;100.00;78295.06;5052910;28;20033;-67
2022/03/11 03:50:41;;;;;;;19.47;9.87;;;;;;;-142.75;100.00;78299.00;5053220;28;20271;-67
2022/03/11 03:53:07;;;;;;;16.33;8.77;;;;;;;-142.75;100.00;78299.00;5053235;28;20052;-67
2022/03/11 03:55:32;;;;;;;17.38;9.95;;;;;;;-142.75;100.00;78302.94;5053056;28;20055;-66
2022/03/11 03:57:57;;;;;;;17.93;8.63;;;;;;;-142.75;100.00;78308.84;5051479;28;20036;-67
2022/03/11 04:00:23;;;;;;;19.07;9.90;;;;;;;-142.75;100.00;78312.78;5052858;28;20282;-67
2022/03/11 04:02:50;;;;;;;16.67;8.80;;;;;;;-142.75;100.00;78314.75;5052800;28;20086;-67
2022/03/11 04:05:16;;;;;;;18.47;9.63;;;;;;;-142.75;100.00;78318.69;5052855;28;20025;-67
2022/03/11 04:07:43;;;;;;;16.47;9.30;;;;;;;-142.75;100.00;78330.50;5052676;28;20053;-66
2022/03/11 04:10:10;;;;;;;17.67;10.20;;;;;;;-142.75;100.00;78336.41;5052400;28;20082;-67
2022/03/11 04:12:36;;;;;;;22.83;9.37;;;;;;;-142.75;100.00;78348.22;5051623;28;20402;-66
2022/03/11 04:15:01;;;;;;;16.75;9.75;;;;;;;-142.75;100.00;78362.00;5051410;28;20036;-66
2022/03/11 04:17:27;;;;;;;16.67;9.00;;;;;;;-142.75;100.00;78363.97;5052636;28;20079;-67
2022/03/11 04:19:52;;;;;;;17.40;10.37;;;;;;;-142.75;100.00;78373.81;5050521;28;20024;-66
2022/03/11 04:22:17;;;;;;;15.97;9.00;;;;;;;-142.75;100.00;78377.75;5052389;28;20268;-67
2022/03/11 04:24:42;;;;;;;17.17;9.35;;;;;;;-142.75;100.00;78375.78;5051160;28;20021;-66
2022/03/11 04:27:08;;;;;;;19.33;9.33;;;;;;;-142.75;100.00;78379.72;5052529;28;20024;-67
2022/03/11 04:29:34;;;;;;;19.77;9.55;;;;;;;-142.75;100.00;78385.63;5052269;28;20672;-67
2022/03/11 04:31:59;;;;;;;16.63;9.63;;;;;;;-142.75;100.00;78373.81;5052520;28;20027;-67
2022/03/11 04:34:25;;;;;;;14.37;8.60;;;;;;;-142.75;100.00;78375.78;5052374;28;20029;-66
2022/03/11 04:36:51;;;;;;;15.93;9.27;;;;;;;-142.75;100.00;78371.84;5052214;28;20045;-67
2022/03/11 04:39:16;;;;;;;16.13;9.55;;;;;;;-142.75;100.00;78375.78;5051858;28;20075;-67
2022/03/11 04:41:43;;;;;;;19.00;9.60;;;;;;;-142.75;100.00;78377.75;5052302;28;20040;-66
2022/03/11 04:44:08;;;;;;;19.00;9.70;;;;;;;-142.75;100.00;78375.78;5052295;28;20029;-66
2022/03/11 04:46:33;;;;;;;16.60;9.03;;;;;;;-142.75;100.00;78379.72;5052305;28;20074;-66
2022/03/11 04:48:59;;;;;;;16.50;9.23;;;;;;;-142.75;100.00;78381.69;5050465;28;20310;-67
2022/03/11 04:51:25;;;;;;;15.40;8.23;;;;;;;-142.75;100.00;78363.97;5052077;28;20132;-66
2022/03/11 04:53:50;;;;;;;17.23;9.32;;;;;;;-142.75;100.00;78367.91;5050467;28;20017;-66
2022/03/11 04:56:16;;;;;;;17.08;9.13;;;;;;;-142.75;100.00;78365.94;5051513;28;20032;-67
2022/03/11 04:58:41;;;;;;;16.48;9.52;;;;;;;-142.75;100.00;78365.94;5051623;28;20017;-67
2022/03/11 05:01:07;;;;;;;16.40;9.20;;;;;;;-142.75;100.00;78358.06;5051937;28;20021;-67
2022/03/11 05:03:32;;;;;;;18.92;9.90;;;;;;;-142.75;100.00;78358.06;5052042;28;20024;-66
2022/03/11 05:05:57;;;;;;;16.08;9.20;;;;;;;-142.75;100.00;78342.31;5051801;28;20024;-67
2022/03/11 05:08:23;;;;;;;15.95;8.80;;;;;;;-142.75;100.00;78332.47;5050073;28;20394;-67
2022/03/11 05:10:48;;;;;;;15.75;8.93;;;;;;;-142.75;100.00;78326.56;5052162;28;20040;-67
2022/03/11 05:13:14;;;;;;;17.77;8.70;;;;;;;-142.75;100.00;78316.72;5051963;28;20473;-67
2022/03/11 05:15:40;;;;;;;17.33;9.25;;;;;;;-142.75;100.00;78308.84;5050266;28;20021;-67
2022/03/11 05:18:08;;;;;;;15.98;9.38;;;;;;;-142.75;100.00;78310.81;5051390;28;20033;-66
2022/03/11 05:20:34;;;;;;;17.50;8.60;;;;;;;-142.75;100.00;78314.75;5051777;28;20025;-66
2022/03/11 05:23:00;;;;;;;18.30;9.23;;;;;;;-142.75;100.00;78312.78;5051281;28;20025;-67
2022/03/11 05:25:25;;;;;;;16.55;8.73;;;;;;;-142.75;100.00;78302.94;5051329;28;20027;-66
2022/03/11 05:27:51;;;;;;;15.30;8.10;;;;;;;-142.75;100.00;78312.78;5051036;28;20033;-66
2022/03/11 05:30:17;;;;;;;17.90;9.10;;;;;;;-142.75;100.00;78314.75;5051581;28;20618;-66
2022/03/11 05:32:44;;;;;;;15.57;9.17;;;;;;;-142.75;100.00;78308.84;5051314;28;20031;-67
2022/03/11 05:35:10;;;;;;;16.27;9.03;;;;;;;-142.75;100.00;78310.81;5051074;28;20358;-66
2022/03/11 05:37:35;;;;;;;19.30;9.25;;;;;;;-142.75;100.00;78308.84;5049934;28;20032;-67
2022/03/11 05:40:00;;;;;;;17.45;8.82;;;;;;;-142.75;100.00;78308.84;5050602;28;20025;-66
2022/03/11 05:42:26;;;;;;;15.30;8.60;;;;;;;-142.75;100.00;78306.88;5051232;28;20029;-66
2022/03/11 05:44:51;;;;;;;17.00;8.33;;;;;;;-142.75;100.00;78308.84;5051140;28;20275;-67
2022/03/11 05:47:16;;;;;;;15.30;7.83;;;;;;;-142.75;100.00;78299.00;5051166;28;20349;-66
2022/03/11 05:49:41;;;;;;;16.13;8.10;;;;;;;-142.75;100.00;78293.06;5051059;28;20025;-67
2022/03/11 05:52:07;;;;;;;16.40;8.32;;;;;;;-142.75;100.00;78299.00;5049851;28;20553;-67
2022/03/11 05:54:32;;;;;;;14.77;8.25;;;;;;;-142.75;100.00;78295.06;5051346;28;20017;-66
2022/03/11 05:56:59;;;;;;;15.60;8.27;;;;;;;-142.75;100.00;78295.06;5051317;28;20035;-67
2022/03/11 05:59:25;;;;;;;16.93;8.20;;;;;;;-142.75;100.00;78283.22;5050980;28;20287;-67
2022/03/11 06:01:51;;;;;;;16.63;8.70;;;;;;;-142.75;100.00;78291.09;5050034;28;20052;-66
2022/03/11 06:04:16;;;;;;;21.95;8.85;;;;;;;-142.75;100.00;78283.22;5051349;28;20064;-67
2022/03/11 06:06:41;;;;;;;15.50;8.68;;;;;;;-142.75;100.00;78283.22;5050891;28;20044;-67
2022/03/11 06:09:08;;;;;;;17.30;7.97;;;;;;;-142.75;100.00;78273.38;5050928;28;20044;-67
2022/03/11 06:11:34;;;;;;;14.67;8.33;;;;;;;-142.75;100.00;78271.41;5049685;28;20275;-67
2022/03/11 06:13:59;;;;;;;19.83;9.55;;;;;;;-142.75;100.00;78269.44;5051063;28;20479;-66
2022/03/11 06:16:25;;;;;;;15.43;7.80;;;;;;;-142.75;100.00;78261.56;5049973;28;20037;-66
2022/03/11 06:18:50;;;;;;;13.57;7.60;;;;;;;-142.75;100.00;78251.72;5050502;28;20704;-67
2022/03/11 06:21:15;;;;;;;15.43;8.17;;;;;;;-142.75;100.00;78245.81;5050448;28;20036;-67
2022/03/11 06:23:40;;;;;;;13.90;7.73;;;;;;;-142.75;100.00;78241.88;5049411;28;20275;-67
2022/03/11 06:26:06;;;;;;;15.83;8.00;;;;;;;-142.75;100.00;78235.97;5050798;28;20021;-66
2022/03/11 06:28:31;;;;;;;16.00;8.10;;;;;;;-142.75;100.00;78232.03;5050713;28;20350;-66
2022/03/11 06:30:57;;;;;;;16.25;8.30;;;;;;;-142.75;100.00;78214.31;5051383;28;20025;-67
2022/03/11 06:33:23;;;;;;;13.10;7.78;;;;;;;-142.75;100.00;78216.28;5051108;28;20024;-67
2022/03/11 06:35:49;;;;;;;14.40;8.27;;;;;;;-142.75;100.00;78202.50;5050609;28;20041;-67
2022/03/11 06:38:15;;;;;;;13.63;7.83;;;;;;;-142.75;100.00;78194.63;5050286;28;20032;-67
2022/03/11 06:40:41;;;;;;;16.23;7.50;;;;;;;-142.75;100.00;78188.72;5050783;28;20021;-67
2022/03/11 06:43:06;;;;;;;16.00;8.50;;;;;;;-142.75;100.00;78180.81;5050899;28;20082;-66
2022/03/11 06:45:31;;;;;;;21.67;9.07;;;;;;;-142.75;100.00;78165.06;5049666;28;20402;-66
2022/03/11 06:47:56;;;;;;;15.00;7.37;;;;;;;-142.75;100.00;78161.13;5050542;28;20056;-66
2022/03/11 06:50:22;;;;;;;12.70;7.60;;;;;;;-142.75;100.00;78157.19;5050618;28;20622;-66
2022/03/11 06:52:47;;;;;;;18.52;8.45;;;;;;;-142.75;100.00;78133.56;5050695;28;20704;-67
2022/03/11 06:55:13;;;;;;;16.98;7.72;;;;;;;-142.75;100.00;78123.72;5050686;28;20021;-66
2022/03/11 06:57:39;;;;;;;14.00;7.50;;;;;;;-142.75;100.00;78115.84;5050871;28;20029;-66
2022/03/11 07:00:06;;;;;;;14.60;7.78;;;;;;;-142.75;100.00;78098.13;5048742;28;20064;-66
2022/03/11 07:02:31;;;;;;;17.67;8.07;;;;;;;-142.75;99.57;78088.28;5050407;28;20017;-66
2022/03/11 07:04:57;;;;;;;15.75;8.10;;;;;;;-142.75;100.00;78074.50;5050214;28;20441;-66
2022/03/11 07:07:22;;;;;;;15.65;8.05;;;;;;;-142.75;98.96;78062.69;5050277;28;20047;-67
2022/03/11 07:09:48;;;;;;;14.90;7.78;;;;;;;-142.75;100.00;78054.81;5048930;28;20501;-66
2022/03/11 07:12:13;;;;;;;15.05;7.63;;;;;;;-142.75;98.52;78050.84;5050296;28;20399;-66
2022/03/11 07:14:39;;;;;;;16.35;7.60;;;;;;;-142.75;98.63;78031.16;5036891;28;20040;-66
2022/03/11 07:17:05;;;;;;;13.55;7.18;;;;;;;-142.75;98.42;78023.28;5029165;28;20025;-66
2022/03/11 07:19:33;;;;;;;15.13;7.50;;;;;;;-142.75;95.64;78005.56;5032496;28;20055;-66
2022/03/11 07:22:01;;;;;;;14.53;7.73;;;;;;;-142.75;93.13;77983.91;5034094;28;20029;-66
2022/03/11 07:24:26;;;;;;;13.30;7.87;;;;;;;-142.75;92.74;77978.00;5033913;28;20411;-65
2022/03/11 07:26:52;;;;;;;13.55;7.35;;;;;;;-142.75;94.14;77972.09;5028654;28;20033;-65
2022/03/11 07:29:17;;;;;;;13.32;7.47;;;;;;;-142.75;91.40;77940.59;5036197;28;20029;-66
2022/03/11 07:31:43;;;;;;;13.15;7.50;;;;;;;-142.75;89.54;77948.47;5037897;28;20069;-66
2022/03/11 07:34:08;;;;;;;16.67;7.72;;;;;;;-142.75;88.73;77913.03;5036233;28;20037;-65
2022/03/11 07:36:34;;;;;;;12.98;7.82;;;;;;;-142.75;86.64;77918.94;5033161;28;20036;-65
2022/03/11 07:39:04;;;;;;;14.82;7.75;;;;;;;-142.75;86.44;77889.38;5033565;28;20104;-66
2022/03/11 07:41:29;;;;;;;11.23;6.80;;;;;;;-142.75;84.99;77877.56;5034175;28;20051;-65
2022/03/11 07:43:55;;;;;;;12.75;7.07;;;;;;;-142.75;85.32;77857.88;5034324;28;20029;-66
2022/03/11 07:46:23;;;;;;;13.57;7.72;;;;;;;-142.75;89.37;77796.84;5034100;28;20152;-66
2022/03/11 07:48:51;;;;;;;15.83;7.83;;;;;;;-142.75;84.38;77790.94;5032755;28;20025;-67
2022/03/11 07:51:18;;;;;;;12.60;7.40;;;;;;;-142.75;81.37;77783.06;5032961;28;20026;-66
2022/03/11 07:53:43;;;;;;;14.35;7.97;;;;;;;-142.75;80.35;77769.28;5031979;28;20044;-67
2022/03/11 07:56:10;;;;;;;13.05;7.70;;;;;;;-142.75;80.42;77749.59;5033064;28;20072;-66
2022/03/11 07:58:36;;;;;;;18.97;7.97;;;;;;;-142.75;77.96;77757.47;5032838;28;20025;-66
2022/03/11 08:01:04;;;;;;;18.42;7.88;;;;;;;-142.75;78.23;77731.88;5032825;28;20026;-66
2022/03/11 08:03:29;;;;;;;16.77;7.80;;;;;;;-142.75;79.96;77727.94;5032945;28;20075;-66
2022/03/11 08:05:55;;;;;;;13.38;7.60;;;;;;;-142.75;79.49;77716.09;5031595;28;20489;-67
2022/03/11 08:08:20;;;;;;;13.50;7.47;;;;;;;-142.75;78.59;77714.13;5032659;28;20364;-67
2022/03/11 08:10:45;;;;;;;17.50;7.40;;;;;;;-142.75;77.88;77676.72;5032644;28;20272;-66
2022/03/11 08:13:10;;;;;;;17.07;7.60;;;;;;;-142.75;78.04;77664.91;5031582;28;20272;-66
2022/03/11 08:15:36;;;;;;;12.43;7.33;;;;;;;-142.75;75.81;77664.91;5030770;28;20060;-67
2022/03/11 08:18:03;;;;;;;18.37;7.70;;;;;;;-142.75;75.88;77633.41;5031639;28;20634;-66
2022/03/11 08:20:29;;;;;;;13.50;7.80;;;;;;;-142.75;77.50;77578.28;5031631;28;20071;-66
2022/03/11 08:22:55;;;;;;;19.40;8.53;;;;;;;-142.75;75.12;77536.94;5031885;28;20112;-66
2022/03/11 08:25:21;;;;;;;13.18;7.65;;;;;;;-142.75;72.48;77534.97;5031972;28;20128;-66
2022/03/11 08:27:47;;;;;;;16.17;8.40;;;;;;;-142.75;nan;77507.41;5031464;28;20053;-67
2022/03/11 08:30:12;;;;;;;14.50;7.85;;;;;;;-142.75;71.90;77503.47;5031876;28;20483;-66
2022/03/11 08:32:39;;;;;;;14.05;7.70;;;;;;;-142.75;72.19;77503.47;5031658;28;20037;-67
2022/03/11 08:35:06;;;;;;;14.27;7.73;;;;;;;-142.75;72.88;77495.59;5031378;28;20503;-66
2022/03/11 08:37:32;;;;;;;12.93;7.50;;;;;;;-142.75;71.15;77473.94;5031848;28;20017;-66
2022/03/11 08:39:57;;;;;;;14.55;8.18;;;;;;;-142.75;70.85;77446.34;5031331;28;20557;-66
2022/03/11 08:42:23;;;;;;;12.43;8.43;;;;;;;-142.75;69.75;77438.47;5037470;28;20055;-67
2022/03/11 08:44:48;;;;;;;16.77;8.53;;;;;;;-142.75;69.94;77432.56;5051506;28;20332;-67
2022/03/11 08:47:14;;;;;;;15.45;7.30;;;;;;;-142.75;69.96;77420.75;5051583;28;20333;-67
2022/03/11 08:49:39;;;;;;;13.23;7.95;;;;;;;-142.75;69.47;77420.75;5051135;28;20013;-66
2022/03/11 08:52:06;;;;;;;22.20;8.18;;;;;;;-142.75;68.98;77399.09;5051223;28;20626;-66
2022/03/11 08:54:31;;;;;;;13.57;7.43;;;;;;;-142.75;68.92;77385.31;5051071;28;20035;-66
2022/03/11 08:56:59;;;;;;;13.75;8.02;;;;;;;-142.75;69.43;77408.94;5051269;28;20437;-65
2022/03/11 08:59:24;;;;;;;16.87;8.23;;;;;;;-142.75;69.84;77379.41;5050701;28;20070;-67
2022/03/11 09:01:50;;;;;;;14.10;8.35;;;;;;;-142.75;69.04;77377.44;5050923;28;20033;-69
2022/03/11 09:04:15;;;;;;;15.68;7.85;;;;;;;-142.75;68.27;77403.03;5050114;28;20021;-67
2022/03/11 09:06:40;;;;;;;14.70;7.70;;;;;;;-142.75;68.79;77393.19;5048794;28;20024;-67
2022/03/11 09:09:06;;;;;;;13.47;7.87;;;;;;;-142.75;68.91;77381.38;5050122;28;20259;-66
2022/03/11 09:11:32;;;;;;;13.90;7.32;;;;;;;-142.75;70.69;77332.16;5050359;28;20267;-67
2022/03/11 09:13:58;;;;;;;17.42;7.88;;;;;;;-142.75;69.01;77312.47;5050468;28;20028;-67
2022/03/11 09:16:23;;;;;;;14.63;7.97;;;;;;;-142.75;67.25;77273.09;5050673;28;20047;-66
2022/03/11 09:18:48;;;;;;;11.82;7.15;;;;;;;-142.75;66.54;77288.84;5050112;28;20509;-67
2022/03/11 09:21:14;;;;;;;14.20;8.38;;;;;;;-142.75;67.79;77275.06;5050483;28;20029;-66
2022/03/11 09:23:39;;;;;;;15.77;9.00;;;;;;;-142.75;66.27;77263.25;5050438;28;20021;-67
2022/03/11 09:26:05;;;;;;;15.02;7.95;;;;;;;-142.75;66.31;77235.69;5048972;28;20021;-67
2022/03/11 09:28:31;;;;;;;14.90;7.75;;;;;;;-142.75;67.84;77208.13;5050183;28;20036;-66
2022/03/11 09:30:57;;;;;;;14.35;7.93;;;;;;;-142.75;67.11;77208.13;5052191;28;20025;-68
2022/03/11 09:33:22;;;;;;;16.80;7.30;;;;;;;-142.75;65.41;77192.38;5051142;28;20029;-68
2022/03/11 09:35:47;;;;;;;15.13;8.18;;;;;;;-142.75;64.69;77190.41;5050359;28;20114;-68
2022/03/11 09:38:13;;;;;;;15.80;8.13;;;;;;;-142.75;67.72;77180.56;5049654;28;20032;-68
2022/03/11 09:40:44;;;;;;;17.08;8.73;;;;;;;-142.75;67.74;77174.66;5049734;28;20521;-69
2022/03/11 09:43:11;;;;;;;12.90;7.10;;;;;;;-142.75;66.10;77200.25;5050342;28;20117;-69
2022/03/11 09:45:37;;;;;;;15.40;7.82;;;;;;;-142.75;67.49;77158.91;5050329;28;20415;-68
2022/03/11 09:48:02;;;;;;;14.90;7.60;;;;;;;-142.75;68.12;77137.25;5049411;28;20131;-69
2022/03/11 09:50:29;;;;;;;16.48;8.13;;;;;;;-142.75;66.01;77123.47;5050086;28;20107;-67
2022/03/11 09:52:55;;;;;;;16.73;7.88;;;;;;;-142.75;67.47;77101.81;5050003;28;20099;-67
2022/03/11 09:55:20;;;;;;;14.48;8.52;;;;;;;-142.75;67.00;77076.22;5048791;28;20102;-67
2022/03/11 09:57:46;;;;;;;15.68;8.07;;;;;;;-142.75;66.70;77080.16;5049736;28;20078;-67
2022/03/11 10:00:11;;;;;;;13.80;7.90;;;;;;;-142.75;67.38;77048.66;5049848;28;20025;-67
2022/03/11 10:02:37;;;;;;;14.07;7.38;;;;;;;-142.75;65.14;77042.75;5049927;28;20037;-67
2022/03/11 10:05:02;;;;;;;15.32;7.82;;;;;;;-142.75;66.49;77027.00;5049220;28;20017;-67
2022/03/11 10:07:29;;;;;;;15.13;7.85;;;;;;;-142.75;65.87;77019.13;5050115;28;20122;-67
2022/03/11 10:09:56;;;;;;;18.65;7.68;;;;;;;-142.75;66.16;77023.06;5049701;28;20059;-67
2022/03/11 10:12:27;;;;;;;14.98;7.65;;;;;;;-142.75;68.16;76993.53;5049542;28;20028;-67
2022/03/11 10:15:00;;;;;;;16.20;8.00;;;;;;;-142.75;65.56;76999.44;5049910;28;20111;-67
2022/03/11 10:17:26;;;;;;;14.40;7.68;;;;;;;-142.75;65.71;76995.50;5049856;28;20154;-67
2022/03/11 10:20:03;;;;;;;14.45;7.97;;;;;;;-142.75;67.06;77011.25;5049429;28;20044;-67
2022/03/11 10:22:30;;;;;;;12.95;8.32;;;;;;;-142.75;68.45;77003.38;5048453;28;20502;-67
2022/03/11 10:24:55;;;;;;;20.08;7.60;;;;;;;-142.75;67.01;76999.44;5050038;28;20033;-67
2022/03/11 10:27:23;;;;;;;18.50;7.50;;;;;;;-142.75;65.72;76967.94;5046365;28;20037;-67
2022/03/11 10:29:49;;;;;;;13.10;7.82;;;;;;;-142.75;66.92;76940.38;5029288;28;20022;-67
2022/03/11 10:32:20;;;;;;;;;;;;;;;-142.75;65.01;76920.69;5030285;28;20036;-66
2022/03/11 10:34:46;;;;;;;13.10;8.15;;;;;;;-142.75;63.48;76928.56;5029982;28;19931;-67
2022/03/11 10:37:15;;;;;;;16.13;7.80;;;;;;;-142.75;64.60;76887.22;5028824;28;20124;-66
2022/03/11 10:39:42;;;;;;;14.80;8.02;;;;;;;-142.75;65.87;76889.19;5028841;28;20367;-66
2022/03/11 10:42:19;;;;;;;17.33;8.27;;;;;;;-142.75;64.21;76881.31;5028337;28;20021;-67
2022/03/11 10:45:02;;;;;;;13.02;6.90;;;;;;;-142.75;65.68;76877.38;5029825;28;20029;-66
2022/03/11 10:47:36;;;;;;;18.58;7.50;;;;;;;-142.75;65.56;76834.06;5030151;28;20404;-67
2022/03/11 10:50:11;;;;;;;14.13;8.07;;;;;;;-142.75;64.98;76855.72;5030357;28;20109;-67
2022/03/11 10:52:44;;;;;;;15.82;8.18;;;;;;;-142.75;64.66;76847.84;5031159;28;20044;-67
2022/03/11 10:55:19;;;;;;;13.35;8.00;;;;;;;-142.75;64.88;76834.06;5050931;28;20058;-67
2022/03/11 10:57:45;;;;;;;13.60;7.70;;;;;;;-142.75;65.75;76834.06;5054042;28;20461;-68
2022/03/11 11:00:24;;;;;;;13.80;7.93;;;;;;;-142.75;64.36;76818.31;5054192;28;20570;-67
2022/03/11 11:02:51;;;;;;;14.48;7.60;;;;;;;-142.75;65.59;76775.03;5035717;28;20083;-67